Time;durP1;ratioP1;P1;durP2;ratioP2;P2;SDS_P1;SDS_P2;PMS_P1;PMS_P2;Temp;Humidity;BMP_temperature;BMP_pressure;BME280_temperature;BME280_humidity;BME280_pressure;Samples;Min_cycle;Max_cycle;Signal;HPM_P1;HPM_P2
2023/11/02 00:01:55;;;;;;;7.97;3.30;;;;;;;5.80;79.41;91571.56;2054317;69;20189;-74
2023/11/02 00:04:26;;;;;;;9.57;2.60;;;;;;;5.81;78.95;91558.34;2054598;69;20253;-75
2023/11/02 00:06:52;;;;;;;6.95;2.90;;;;;;;5.42;79.54;91564.41;2055015;69;20624;-77
2023/11/02 00:09:34;;;;;;;5.68;3.20;;;;;;;5.62;79.82;91550.94;2054910;69;20158;-78
2023/11/02 00:12:23;;;;;;;7.13;3.65;;;;;;;5.69;79.23;91554.84;2057174;69;20154;-73
2023/11/02 00:14:53;;;;;;;6.43;3.38;;;;;;;5.72;79.51;91551.53;2054895;70;20150;-75
2023/11/02 00:17:31;;;;;;;5.13;2.70;;;;;;;5.43;79.57;91557.47;2054941;69;20165;-77
2023/11/02 00:19:57;;;;;;;7.90;4.38;;;;;;;5.45;80.82;91554.84;2056915;69;20141;-77
2023/11/02 00:22:27;;;;;;;7.97;3.53;;;;;;;5.52;79.73;91559.44;2054904;69;20142;-77
2023/11/02 00:25:05;;;;;;;5.22;2.97;;;;;;;4.97;80.42;91546.97;2054775;69;20630;-77
2023/11/02 00:27:33;;;;;;;5.10;2.75;;;;;;;5.27;81.52;91556.50;2054854;69;20160;-74
2023/11/02 00:29:59;;;;;;;4.72;3.22;;;;;;;5.36;81.24;91544.50;2054949;69;20174;-74
2023/11/02 00:32:25;;;;;;;8.07;3.00;;;;;;;5.30;81.12;91544.13;2054901;69;20185;-76
2023/11/02 00:34:51;;;;;;;7.47;2.78;;;;;;;5.34;80.25;91544.38;2057159;69;20636;-74
2023/11/02 00:37:18;;;;;;;7.43;2.83;;;;;;;5.43;79.56;91551.91;2054903;69;20276;-73
2023/11/02 00:39:45;;;;;;;4.60;2.20;;;;;;;5.47;80.53;91549.34;2054564;69;20241;-74
2023/11/02 00:42:13;;;;;;;5.03;2.40;;;;;;;5.44;80.01;91544.25;2054736;69;20637;-73
2023/11/02 00:44:40;;;;;;;3.70;2.50;;;;;;;5.49;79.73;91548.75;2054788;70;20200;-73
2023/11/02 00:47:06;;;;;;;6.20;2.58;;;;;;;5.38;79.43;91553.00;2054341;70;20170;-73
2023/11/02 00:49:32;;;;;;;5.30;2.60;;;;;;;5.33;79.33;91540.84;2054577;69;20610;-75
2023/11/02 00:52:04;;;;;;;4.18;2.20;;;;;;;5.33;79.57;91534.53;2054704;69;20173;-74
2023/11/02 00:54:52;;;;;;;4.40;2.50;;;;;;;4.94;80.52;91525.88;2054750;69;20181;-74
2023/11/02 00:57:24;;;;;;;3.65;2.20;;;;;;;4.97;81.22;91530.25;2054217;70;20259;-75
2023/11/02 00:59:51;;;;;;;4.60;2.10;;;;;;;5.15;80.61;91520.22;2055015;69;20158;-75
2023/11/02 01:02:18;;;;;;;3.65;2.28;;;;;;;5.20;80.54;91513.53;2054614;69;20184;-74
2023/11/02 01:04:43;;;;;;;3.88;2.22;;;;;;;5.28;80.64;91505.66;2054715;69;20158;-75
2023/11/02 01:07:14;;;;;;;5.00;2.63;;;;;;;5.07;81.28;91505.75;2056960;69;20235;-79
2023/11/02 01:09:55;;;;;;;7.20;2.25;;;;;;;5.13;81.00;91494.25;2054101;70;20134;-76
2023/11/02 01:12:37;;;;;;;3.53;1.90;;;;;;;5.06;81.38;91488.31;2054862;69;20126;-78
2023/11/02 01:15:11;;;;;;;3.13;1.80;;;;;;;5.12;81.38;91487.22;2054792;69;20150;-78
2023/11/02 01:17:39;;;;;;;3.08;1.80;;;;;;;4.80;82.80;91490.19;2054395;70;20189;-78
2023/11/02 01:20:11;;;;;;;2.83;1.90;;;;;;;4.93;82.30;91486.09;2054943;69;20185;-76
2023/11/02 01:22:58;;;;;;;3.45;1.90;;;;;;;5.05;81.49;91483.34;2057028;69;20146;-74
2023/11/02 01:25:27;;;;;;;7.50;2.08;;;;;;;5.04;81.81;91479.06;2057069;69;20213;-77
2023/11/02 01:28:02;;;;;;;4.35;1.60;;;;;;;5.08;80.68;91459.78;2054434;70;20161;-74
2023/11/02 01:30:36;;;;;;;5.38;1.70;;;;;;;4.98;80.64;91461.97;2056969;69;20687;-75
2023/11/02 01:33:34;;;;;;;2.88;1.80;;;;;;;5.05;79.93;91458.97;2054835;69;20634;-75
2023/11/02 01:36:02;;;;;;;4.43;1.58;;;;;;;5.12;79.86;91456.53;2055095;69;20209;-74
2023/11/02 01:38:33;;;;;;;3.33;1.90;;;;;;;4.59;82.69;91465.91;2053757;70;20150;-73
2023/11/02 01:41:06;;;;;;;5.03;1.90;;;;;;;4.77;81.68;91471.91;2054651;69;20236;-74
2023/11/02 01:43:57;;;;;;;3.25;1.90;;;;;;;4.90;81.05;91475.41;2054184;70;20216;-75
2023/11/02 01:46:37;;;;;;;3.92;1.95;;;;;;;4.78;81.34;91475.41;2054929;69;20150;-75
2023/11/02 01:49:12;;;;;;;3.53;2.00;;;;;;;4.87;81.01;91454.34;2054911;69;20154;-74
2023/11/02 01:51:54;;;;;;;4.53;1.92;;;;;;;4.66;83.21;91458.66;2055107;69;20285;-74
2023/11/02 01:54:36;;;;;;;2.65;1.67;;;;;;;4.74;82.47;91448.00;2057101;69;20154;-73
2023/11/02 01:57:05;;;;;;;4.30;1.60;;;;;;;4.72;83.07;91433.19;2054942;69;20523;-74
2023/11/02 01:59:37;;;;;;;2.30;1.30;;;;;;;4.64;82.62;91422.28;2054405;69;20142;-75
2023/11/02 02:02:33;;;;;;;4.50;1.73;;;;;;;4.65;83.40;91415.38;2054502;70;20184;-75
2023/11/02 02:05:03;;;;;;;3.25;1.70;;;;;;;4.85;82.27;91408.25;2054414;70;20248;-75
2023/11/02 02:08:05;;;;;;;3.63;1.55;;;;;;;4.76;81.84;91397.22;2055155;69;20205;-74
2023/11/02 02:11:02;;;;;;;6.22;1.70;;;;;;;4.63;83.55;91395.75;2057294;69;20142;-76
2023/11/02 02:14:04;;;;;;;2.33;1.30;;;;;;;4.85;82.25;91376.84;2055160;70;20151;-74
2023/11/02 02:16:51;;;;;;;4.57;1.70;;;;;;;4.86;82.33;91383.91;2040968;70;20198;-74
2023/11/02 02:19:36;;;;;;;2.83;1.60;;;;;;;4.58;84.46;91399.59;2041009;70;20166;-74
2023/11/02 02:22:16;;;;;;;5.13;1.80;;;;;;;4.70;83.03;91399.63;2038076;70;20246;-74
2023/11/02 02:24:49;;;;;;;4.15;1.42;;;;;;;4.57;82.87;91396.09;2037884;70;20171;-75
2023/11/02 02:27:17;;;;;;;3.80;1.70;;;;;;;4.34;85.08;91396.78;2037850;70;20152;-76
2023/11/02 02:30:14;;;;;;;5.13;1.60;;;;;;;4.66;83.67;91386.16;2040578;70;20148;-75
2023/11/02 02:33:01;;;;;;;3.63;1.50;;;;;;;4.44;83.15;91379.22;2040587;70;20210;-75
2023/11/02 02:35:40;;;;;;;2.47;1.50;;;;;;;4.77;82.72;91377.09;2040863;70;20527;-74
2023/11/02 02:38:24;;;;;;;5.75;1.70;;;;;;;4.58;82.31;91364.13;2040573;70;20167;-75
2023/11/02 02:41:04;;;;;;;1.85;1.40;;;;;;;4.75;82.42;91365.81;2040479;70;20311;-74
2023/11/02 02:43:32;;;;;;;7.53;1.95;;;;;;;4.87;81.69;91345.59;2040615;70;20183;-74
2023/11/02 02:46:00;;;;;;;3.45;1.60;;;;;;;4.80;83.45;91339.63;2040699;70;20639;-74
2023/11/02 02:48:28;;;;;;;2.28;1.50;;;;;;;4.54;84.99;91335.28;2040836;70;20155;-74
2023/11/02 02:50:58;;;;;;;3.15;1.58;;;;;;;4.64;84.49;91318.44;2040944;70;20155;-73
2023/11/02 02:53:31;;;;;;;3.08;1.40;;;;;;;4.44;85.29;91317.94;2054222;69;20165;-74
2023/11/02 02:56:06;;;;;;;3.33;1.40;;;;;;;4.67;84.71;91311.63;2054783;69;20978;-75
2023/11/02 02:58:59;;;;;;;5.03;1.05;;;;;;;4.93;83.43;91304.09;2054720;69;20534;-76
2023/11/02 03:01:47;;;;;;;1.77;1.27;;;;;;;4.92;82.59;91311.75;2054909;70;20141;-74
2023/11/02 03:04:19;;;;;;;4.00;1.40;;;;;;;5.01;82.02;91302.53;2053955;69;20603;-75
2023/11/02 03:06:51;;;;;;;4.90;1.27;;;;;;;4.74;83.05;91319.75;2054644;69;20553;-73
2023/11/02 03:09:20;;;;;;;2.83;1.42;;;;;;;4.79;83.61;91331.88;2054077;70;20700;-76
2023/11/02 03:11:53;;;;;;;3.13;1.23;;;;;;;5.01;82.95;91322.03;2054671;69;20172;-74
2023/11/02 03:14:24;;;;;;;4.57;1.30;;;;;;;4.63;83.52;91320.50;2055102;69;20535;-76
2023/11/02 03:16:53;;;;;;;2.20;1.25;;;;;;;4.75;84.09;91304.47;2054964;69;20291;-74
2023/11/02 03:19:38;;;;;;;2.90;1.10;;;;;;;5.02;82.62;91297.66;2054293;69;20173;-76
2023/11/02 03:22:12;;;;;;;3.45;1.00;;;;;;;5.07;82.01;91288.91;2056850;69;20491;-77
2023/11/02 03:25:03;;;;;;;4.45;1.33;;;;;;;4.89;83.37;91282.28;2054337;69;20142;-76
2023/11/02 03:27:44;;;;;;;2.50;1.37;;;;;;;5.09;82.33;91257.63;2054007;70;20220;-76
2023/11/02 03:30:21;;;;;;;3.75;1.20;;;;;;;4.96;83.27;91250.63;2054563;69;20318;-75
2023/11/02 03:32:58;;;;;;;2.10;1.17;;;;;;;4.69;84.67;91237.22;2053688;70;20257;-77
2023/11/02 03:35:47;;;;;;;3.67;1.30;;;;;;;4.95;83.22;91226.88;2056660;69;20622;-74
2023/11/02 03:38:26;;;;;;;2.42;1.00;;;;;;;4.97;83.16;91226.25;2054450;69;20247;-76
2023/11/02 03:41:16;;;;;;;2.47;0.90;;;;;;;5.12;83.54;91217.34;2054701;69;20149;-78
2023/11/02 03:44:16;;;;;;;3.42;1.40;;;;;;;4.64;84.50;91220.88;2054522;70;20343;-78
2023/11/02 03:47:19;;;;;;;3.78;1.20;;;;;;;4.95;83.74;91214.97;2057225;69;20178;-74
2023/11/02 03:50:03;;;;;;;2.03;1.30;;;;;;;4.64;84.23;91221.59;2054813;69;20208;-74
2023/11/02 03:52:46;;;;;;;4.15;1.63;;;;;;;4.99;83.03;91215.22;2054725;69;20260;-77
2023/11/02 03:55:31;;;;;;;2.70;1.67;;;;;;;5.08;82.52;91194.81;2054267;69;20189;-76
2023/11/02 03:58:49;;;;;;;3.92;1.70;;;;;;;4.62;83.80;91209.59;2055047;69;20154;-75
2023/11/02 04:01:36;;;;;;;2.42;1.60;;;;;;;4.98;82.93;91216.56;2040585;70;20250;-75
2023/11/02 04:04:06;;;;;;;3.63;1.88;;;;;;;5.14;82.45;91216.75;2040850;70;20668;-76
2023/11/02 04:06:51;;;;;;;2.78;1.70;;;;;;;5.19;81.98;91229.59;2040824;70;20136;-74
2023/11/02 04:09:21;;;;;;;3.78;1.95;;;;;;;5.08;81.72;91222.69;2040717;70;20183;-76
2023/11/02 04:12:24;;;;;;;2.47;1.80;;;;;;;5.17;82.30;91226.69;2040869;70;20226;-77
2023/11/02 04:14:51;;;;;;;3.58;1.90;;;;;;;5.26;81.94;91214.63;2041003;70;20155;-77
2023/11/02 04:17:18;;;;;;;3.00;2.28;;;;;;;5.22;82.45;91209.56;2040978;70;20202;-75
2023/11/02 04:19:44;;;;;;;2.72;1.75;;;;;;;5.33;82.07;91194.13;2040924;70;20223;-76
2023/11/02 04:22:09;;;;;;;2.72;1.90;;;;;;;5.18;82.24;91184.22;2040868;70;20163;-75
2023/11/02 04:24:35;;;;;;;4.97;1.88;;;;;;;5.31;81.88;91174.44;2040734;70;20663;-76
2023/11/02 04:27:01;;;;;;;6.35;2.05;;;;;;;4.99;82.71;91202.00;2040933;70;20151;-78
2023/11/02 04:29:26;;;;;;;4.28;1.83;;;;;;;5.14;82.60;91180.50;2040866;70;20155;-75
2023/11/02 04:31:52;;;;;;;3.13;1.55;;;;;;;5.39;82.22;91172.13;2040934;70;20604;-78
2023/11/02 04:34:18;;;;;;;2.47;1.70;;;;;;;5.04;83.72;91170.22;2038103;70;20175;-76
2023/11/02 04:36:43;;;;;;;4.72;1.67;;;;;;;5.22;83.51;91162.16;2049454;70;20142;-79
2023/11/02 04:39:09;;;;;;;1.90;1.38;;;;;;;5.33;82.75;91166.94;2055116;69;20150;-78
2023/11/02 04:41:35;;;;;;;5.88;1.50;;;;;;;5.41;82.17;91146.41;2055158;69;20138;-77
2023/11/02 04:44:01;;;;;;;2.40;1.70;;;;;;;5.48;81.92;91140.50;2054508;70;20208;-79
2023/11/02 04:46:26;;;;;;;4.10;1.67;;;;;;;5.51;81.61;91124.63;2055164;69;20209;-75
2023/11/02 04:48:52;;;;;;;4.22;3.25;;;;;;;5.33;83.13;91127.16;2055205;69;20213;-77
2023/11/02 04:51:18;;;;;;;4.25;2.17;;;;;;;5.47;82.46;91125.13;2055242;69;20204;-77
2023/11/02 04:53:44;;;;;;;3.10;1.90;;;;;;;5.54;81.87;91103.81;2055027;69;20182;-77
2023/11/02 04:56:09;;;;;;;3.80;2.03;;;;;;;5.00;84.22;91116.28;2054546;70;20562;-79
2023/11/02 04:58:35;;;;;;;3.90;2.40;;;;;;;5.09;84.21;91101.44;2055106;69;20312;-76
2023/11/02 05:01:01;;;;;;;4.88;2.22;;;;;;;5.38;83.18;91073.00;2055106;69;20221;-75
2023/11/02 05:03:28;;;;;;;3.90;2.20;;;;;;;5.55;82.24;91066.94;2055157;69;20158;-80
2023/11/02 05:05:53;;;;;;;4.40;2.40;;;;;;;5.27;83.72;91082.91;2055129;70;20153;-76
2023/11/02 05:08:19;;;;;;;4.88;2.20;;;;;;;5.45;82.61;91041.28;2055275;69;20142;-77
2023/11/02 05:10:44;;;;;;;5.05;2.35;;;;;;;5.55;81.85;91050.19;2054966;69;20134;-76
2023/11/02 05:13:10;;;;;;;3.65;2.38;;;;;;;5.58;82.45;91045.44;2055205;70;20174;-79
2023/11/02 05:15:35;;;;;;;3.42;2.15;;;;;;;5.25;83.58;91029.78;2055113;69;20162;-76
2023/11/02 05:18:01;;;;;;;4.72;2.00;;;;;;;5.33;83.60;91040.66;2054739;69;20154;-78
2023/11/02 05:20:28;;;;;;;7.53;2.20;;;;;;;5.22;83.91;91058.19;2055109;69;20224;-77
2023/11/02 05:22:55;;;;;;;3.47;2.08;;;;;;;5.25;83.71;91060.47;2055056;69;20166;-79
2023/11/02 05:25:21;;;;;;;4.40;2.10;;;;;;;5.14;83.63;91066.84;2054987;69;20166;-78
2023/11/02 05:27:46;;;;;;;6.15;3.47;;;;;;;4.71;86.03;91063.78;2055064;69;20228;-77
2023/11/02 05:30:12;;;;;;;6.38;3.22;;;;;;;4.91;87.11;91059.34;2055078;69;20162;-78
2023/11/02 05:32:42;;;;;;;7.38;3.13;;;;;;;5.21;84.93;91046.28;2054512;69;20142;-80
2023/11/02 05:35:09;;;;;;;8.50;3.42;;;;;;;5.37;84.29;91037.34;2055027;69;20534;-75
2023/11/02 05:37:41;;;;;;;5.13;2.90;;;;;;;5.49;83.70;91033.13;2054644;69;20142;-80
2023/11/02 05:40:07;;;;;;;4.38;2.80;;;;;;;5.18;85.36;91027.28;2055068;69;20602;-80
2023/11/02 05:42:35;;;;;;;5.70;3.05;;;;;;;5.44;84.30;91036.31;2055106;70;20149;-80
2023/11/02 05:45:02;;;;;;;4.45;2.95;;;;;;;5.59;84.02;91024.56;2055116;69;20207;-82
2023/11/02 05:47:28;;;;;;;3.80;2.83;;;;;;;5.17;84.89;91026.56;2055013;69;20170;-79
2023/11/02 05:49:53;;;;;;;4.93;3.67;;;;;;;5.41;85.43;91018.03;2055170;69;20149;-77
2023/11/02 05:52:19;;;;;;;5.28;4.13;;;;;;;5.62;83.89;91020.50;2055111;70;20173;-79
2023/11/02 05:54:44;;;;;;;6.22;2.83;;;;;;;5.53;83.86;91036.13;2055158;69;20161;-79
2023/11/02 05:57:11;;;;;;;5.68;2.70;;;;;;;5.67;83.37;91010.28;2055283;69;20150;-79
2023/11/02 05:59:38;;;;;;;8.32;2.33;;;;;;;5.74;83.54;91012.06;2055348;69;20209;-80
2023/11/02 06:02:03;;;;;;;4.03;2.40;;;;;;;5.69;83.86;91004.81;2057330;69;20553;-78
2023/11/02 06:04:29;;;;;;;19.95;10.45;;;;;;;5.79;83.26;90983.72;2055347;69;20145;-79
2023/11/02 06:06:55;;;;;;;8.65;5.65;;;;;;;5.79;82.93;91011.63;2055264;69;20172;-80
2023/11/02 06:09:20;;;;;;;8.13;5.43;;;;;;;5.71;83.30;90994.47;2055269;69;20249;-78
2023/11/02 06:11:46;;;;;;;8.93;5.40;;;;;;;5.87;82.30;90977.81;2055043;69;20153;-77
2023/11/02 06:14:15;;;;;;;13.07;5.78;;;;;;;5.88;82.21;90956.19;2054477;70;20161;-77
2023/11/02 06:16:40;;;;;;;16.23;9.65;;;;;;;5.80;82.87;90957.22;2055235;69;20169;-80
2023/11/02 06:19:11;;;;;;;18.05;10.23;;;;;;;5.89;82.52;90977.91;2057578;69;20150;-76
2023/11/02 06:21:37;;;;;;;14.07;6.88;;;;;;;5.92;82.26;90970.41;2055154;69;20211;-78
2023/11/02 06:24:02;;;;;;;9.57;4.80;;;;;;;5.79;83.12;90980.91;2057057;69;20142;-79
2023/11/02 06:26:28;;;;;;;21.75;9.85;;;;;;;5.74;83.38;90979.28;2055120;69;20177;-79
2023/11/02 06:28:53;;;;;;;14.13;9.00;;;;;;;5.77;82.96;90966.13;2054992;69;20653;-78
2023/11/02 06:31:19;;;;;;;10.48;7.20;;;;;;;5.94;82.54;90939.75;2054960;69;20134;-77
2023/11/02 06:33:45;;;;;;;10.05;5.97;;;;;;;5.90;83.10;90917.91;2055106;69;20149;-77
2023/11/02 06:36:11;;;;;;;8.75;5.30;;;;;;;5.96;82.47;90889.59;2054617;69;20152;-77
2023/11/02 06:38:36;;;;;;;9.32;5.85;;;;;;;5.86;82.79;90870.22;2055118;69;20146;-78
2023/11/02 06:41:02;;;;;;;13.07;7.13;;;;;;;6.11;82.38;90914.06;2054532;69;20475;-77
2023/11/02 06:43:32;;;;;;;12.48;7.15;;;;;;;6.13;82.31;90905.06;2055072;69;20316;-77
2023/11/02 06:45:58;;;;;;;8.93;6.00;;;;;;;6.07;82.54;90920.16;2055059;69;20154;-75
2023/11/02 06:48:24;;;;;;;11.70;6.30;;;;;;;5.40;85.53;90932.84;2054459;70;20175;-76
2023/11/02 06:50:50;;;;;;;13.90;6.80;;;;;;;5.37;86.06;90932.03;2054950;69;20146;-76
2023/11/02 06:53:17;;;;;;;12.75;7.90;;;;;;;5.70;84.87;90944.84;2054518;70;20153;-76
2023/11/02 06:55:43;;;;;;;13.88;7.75;;;;;;;5.86;83.41;90948.44;2054949;69;20494;-77
2023/11/02 06:58:11;;;;;;;12.15;7.13;;;;;;;6.02;83.35;90926.19;2055051;69;20164;-77
2023/11/02 07:00:37;;;;;;;9.13;5.80;;;;;;;5.94;83.37;90931.38;2055098;69;20195;-76
2023/11/02 07:03:03;;;;;;;10.48;6.00;;;;;;;5.99;83.71;90930.94;2054762;69;20146;-77
2023/11/02 07:05:29;;;;;;;9.27;5.10;;;;;;;6.16;83.00;90910.13;2054689;70;20244;-77
2023/11/02 07:07:55;;;;;;;6.82;4.13;;;;;;;6.35;82.54;90922.88;2054353;70;20141;-81
2023/11/02 07:10:22;;;;;;;9.10;4.72;;;;;;;5.66;84.77;90933.47;2054833;69;20229;-78
2023/11/02 07:12:48;;;;;;;13.00;6.68;;;;;;;6.07;84.27;90927.84;2054294;69;20200;-80
2023/11/02 07:15:15;;;;;;;22.30;7.75;;;;;;;6.40;83.37;90944.06;2054306;70;20563;-82
2023/11/02 07:17:41;;;;;;;11.00;6.40;;;;;;;6.34;83.34;90936.13;2054999;69;20602;-77
2023/11/02 07:20:07;;;;;;;11.70;4.97;;;;;;;6.60;82.44;90936.66;2054890;70;20185;-77
2023/11/02 07:22:32;;;;;;;11.25;6.03;;;;;;;5.98;85.04;90957.44;2054869;69;20165;-80
2023/11/02 07:25:00;;;;;;;9.82;6.07;;;;;;;6.36;84.38;90935.50;2054177;70;20285;-80
2023/11/02 07:27:28;;;;;;;12.82;6.30;;;;;;;6.76;83.05;90924.78;2055038;70;20730;-77
2023/11/02 07:29:54;;;;;;;11.90;7.60;;;;;;;6.48;84.12;90910.19;2054320;70;20146;-80
2023/11/02 07:32:21;;;;;;;15.25;8.35;;;;;;;6.89;82.97;90898.81;2054819;69;20138;-81
2023/11/02 07:34:46;;;;;;;12.75;7.97;;;;;;;6.90;82.96;90907.91;2054840;70;20186;-80
2023/11/02 07:37:15;;;;;;;11.95;7.30;;;;;;;7.11;82.62;90894.19;2055012;69;20213;-81
2023/11/02 07:39:40;;;;;;;9.90;6.15;;;;;;;7.21;81.65;90902.31;2054624;69;20236;-80
2023/11/02 07:42:06;;;;;;;27.65;15.15;;;;;;;7.17;81.89;90904.94;2054827;69;20150;-81
2023/11/02 07:44:32;;;;;;;19.85;12.68;;;;;;;7.29;81.82;90887.97;2054177;70;20641;-81
2023/11/02 07:46:58;;;;;;;11.90;6.78;;;;;;;7.54;81.57;90875.72;2054336;70;20514;-81
2023/11/02 07:49:24;;;;;;;18.60;9.80;;;;;;;7.04;83.05;90905.75;2054712;70;20594;-78
2023/11/02 07:51:53;;;;;;;15.85;10.38;;;;;;;7.57;80.93;90861.19;2054803;69;20150;-81
2023/11/02 07:54:19;;;;;;;11.05;7.40;;;;;;;7.74;81.28;90856.25;2054666;70;20166;-79
2023/11/02 07:56:45;;;;;;;46.50;25.33;;;;;;;7.66;81.38;90889.53;2057038;69;20131;-77
2023/11/02 07:59:11;;;;;;;24.75;14.32;;;;;;;8.04;80.55;90873.59;2054766;69;20154;-77
2023/11/02 08:01:38;;;;;;;13.77;7.35;;;;;;;8.13;80.53;90875.34;2054873;69;20229;-78
2023/11/02 08:04:05;;;;;;;11.55;6.85;;;;;;;8.36;78.87;90880.50;2054782;69;20595;-77
2023/11/02 08:06:33;;;;;;;26.95;15.25;;;;;;;8.14;79.93;90879.59;2054860;69;20161;-77
2023/11/02 08:08:58;;;;;;;53.17;26.60;;;;;;;8.08;80.11;90880.06;2054593;69;20348;-76
2023/11/02 08:11:24;;;;;;;36.92;18.60;;;;;;;8.44;79.92;90871.69;2054712;69;20174;-78
2023/11/02 08:13:51;;;;;;;22.55;12.35;;;;;;;8.29;80.46;90856.38;2054819;69;20149;-78
2023/11/02 08:16:20;;;;;;;30.50;16.40;;;;;;;8.34;80.67;90857.28;2054725;70;20592;-77
2023/11/02 08:18:46;;;;;;;20.65;11.68;;;;;;;8.70;79.63;90835.50;2054683;69;20495;-78
2023/11/02 08:21:13;;;;;;;15.45;7.03;;;;;;;8.80;77.79;90826.78;2054641;69;20208;-78
2023/11/02 08:23:41;;;;;;;13.27;7.88;;;;;;;8.56;78.60;90832.19;2054539;69;20730;-77
2023/11/02 08:26:07;;;;;;;14.80;8.73;;;;;;;8.89;77.75;90834.13;2055267;69;20150;-78
2023/11/02 08:28:33;;;;;;;11.40;6.65;;;;;;;9.04;77.29;90821.34;2057478;69;20148;-77
2023/11/02 08:30:58;;;;;;;8.18;4.53;;;;;;;9.07;75.96;90814.41;2054831;70;20162;-77
2023/11/02 08:33:24;;;;;;;11.07;6.28;;;;;;;9.09;76.38;90820.81;2055108;69;20189;-79
2023/11/02 08:35:51;;;;;;;7.05;4.40;;;;;;;9.11;75.75;90820.88;2055098;69;20146;-77
2023/11/02 08:38:17;;;;;;;7.60;4.70;;;;;;;9.13;76.04;90809.75;2054692;69;20161;-78
2023/11/02 08:40:43;;;;;;;11.38;5.32;;;;;;;9.12;75.85;90808.31;2054517;70;20141;-76
2023/11/02 08:43:08;;;;;;;11.10;6.75;;;;;;;8.84;75.91;90813.63;2055308;70;20162;-76
2023/11/02 08:45:34;;;;;;;12.73;6.22;;;;;;;9.00;75.91;90795.94;2055242;69;20256;-78
2023/11/02 08:47:59;;;;;;;13.77;7.70;;;;;;;8.61;76.94;90781.22;2055291;69;20142;-78
2023/11/02 08:50:27;;;;;;;21.70;11.10;;;;;;;8.65;77.16;90775.03;2055310;69;20157;-79
2023/11/02 08:52:54;;;;;;;15.85;9.80;;;;;;;8.93;76.74;90763.38;2054748;69;20225;-77
2023/11/02 08:55:21;;;;;;;12.82;8.18;;;;;;;8.84;76.61;90768.00;2055251;69;20573;-77
2023/11/02 08:57:48;;;;;;;13.30;7.47;;;;;;;9.03;76.17;90756.06;2055175;69;20148;-79
2023/11/02 09:00:14;;;;;;;11.65;7.55;;;;;;;9.15;76.20;90759.28;2055155;70;20174;-78
2023/11/02 09:02:42;;;;;;;11.57;6.35;;;;;;;9.00;76.26;90756.63;2055136;69;20142;-77
2023/11/02 09:05:09;;;;;;;15.90;7.78;;;;;;;9.15;76.14;90750.13;2055004;70;20389;-77
2023/11/02 09:07:35;;;;;;;12.57;8.13;;;;;;;9.28;75.70;90737.25;2054803;70;20130;-78
2023/11/02 09:10:03;;;;;;;13.75;8.98;;;;;;;8.91;76.05;90750.00;2055044;69;20142;-75
2023/11/02 09:12:30;;;;;;;12.80;8.30;;;;;;;9.28;76.23;90751.28;2054661;70;20129;-79
2023/11/02 09:14:56;;;;;;;19.05;10.95;;;;;;;9.28;76.24;90742.88;2055081;69;20152;-79
2023/11/02 09:17:24;;;;;;;14.48;8.35;;;;;;;9.24;75.97;90728.69;2055084;69;20175;-79
2023/11/02 09:19:50;;;;;;;15.68;10.32;;;;;;;9.07;77.34;90736.56;2055149;69;20148;-79
2023/11/02 09:22:16;;;;;;;15.43;9.80;;;;;;;9.29;76.81;90730.25;2055184;69;20142;-81
2023/11/02 09:24:45;;;;;;;12.27;6.40;;;;;;;9.21;76.74;90715.94;2055100;69;20566;-78
2023/11/02 09:27:12;;;;;;;12.30;6.60;;;;;;;8.96;77.00;90720.00;2055160;69;20153;-78
2023/11/02 09:29:39;;;;;;;11.75;6.65;;;;;;;8.89;78.59;90696.66;2054925;70;20165;-78
2023/11/02 09:32:05;;;;;;;10.25;5.88;;;;;;;9.01;77.71;90680.22;2055081;69;20499;-78
2023/11/02 09:34:38;;;;;;;9.93;5.50;;;;;;;8.95;76.49;90685.63;2055003;69;20201;-77
2023/11/02 09:37:04;;;;;;;14.82;7.35;;;;;;;8.86;77.19;90656.56;2051857;70;20236;-77
2023/11/02 09:39:31;;;;;;;12.30;8.07;;;;;;;9.18;76.58;90661.84;2055043;69;20522;-76
2023/11/02 09:41:57;;;;;;;18.42;10.50;;;;;;;9.13;76.40;90660.25;2054960;69;20161;-76
2023/11/02 09:44:27;;;;;;;19.65;10.35;;;;;;;9.37;76.32;90649.81;2054833;69;20618;-77
2023/11/02 09:46:55;;;;;;;13.63;7.95;;;;;;;9.65;76.12;90649.28;2055109;69;20590;-77
2023/11/02 09:49:20;;;;;;;13.55;6.70;;;;;;;9.74;75.46;90636.91;2055150;69;20157;-79
2023/11/02 09:51:48;;;;;;;13.68;7.88;;;;;;;9.88;74.78;90614.16;2055160;69;20150;-78
2023/11/02 09:54:20;;;;;;;16.02;9.00;;;;;;;9.80;74.66;90613.91;2054983;69;20134;-78
2023/11/02 09:56:46;;;;;;;19.75;9.52;;;;;;;9.59;75.21;90598.53;2055201;69;20150;-78
2023/11/02 09:59:13;;;;;;;19.40;8.45;;;;;;;10.00;74.22;90605.38;2055038;69;20137;-77
2023/11/02 10:01:39;;;;;;;15.13;7.97;;;;;;;10.16;74.71;90569.28;2055059;69;20142;-76
2023/11/02 10:04:05;;;;;;;12.07;8.05;;;;;;;10.29;75.10;90550.69;2055061;69;20130;-77
2023/11/02 10:06:34;;;;;;;18.45;7.60;;;;;;;10.08;73.44;90522.00;2055054;69;20148;-78
2023/11/02 10:09:02;;;;;;;10.50;5.85;;;;;;;9.84;72.40;90552.22;2054451;70;20582;-77
2023/11/02 10:11:28;;;;;;;18.80;10.38;;;;;;;10.10;73.49;90532.56;2055070;69;20233;-77
2023/11/02 10:13:56;;;;;;;16.75;8.32;;;;;;;10.34;73.11;90530.44;2051806;70;20237;-78
2023/11/02 10:16:25;;;;;;;19.35;11.02;;;;;;;10.19;73.04;90528.59;2055050;69;20157;-76
2023/11/02 10:18:51;;;;;;;18.15;10.43;;;;;;;10.45;73.25;90508.94;2055183;69;20165;-77
2023/11/02 10:21:19;;;;;;;16.27;7.88;;;;;;;10.35;74.04;90519.91;2055175;69;20157;-77
2023/11/02 10:23:55;;;;;;;14.40;9.15;;;;;;;10.39;73.13;90494.72;2054913;69;20563;-77
2023/11/02 10:26:21;;;;;;;16.35;9.40;;;;;;;10.40;73.94;90496.13;2055009;69;20177;-77
2023/11/02 10:28:50;;;;;;;18.73;9.38;;;;;;;10.56;72.84;90493.75;2055749;69;20183;-79
2023/11/02 10:31:23;;;;;;;15.55;8.57;;;;;;;10.75;73.54;90482.94;2055334;69;20322;-77
2023/11/02 10:33:50;;;;;;;17.42;9.63;;;;;;;10.54;73.38;90470.50;2055120;69;20165;-80
2023/11/02 10:36:19;;;;;;;15.80;8.35;;;;;;;10.84;72.99;90471.22;2052071;70;20150;-78
2023/11/02 10:38:46;;;;;;;13.45;8.15;;;;;;;10.86;72.44;90451.59;2054769;69;20245;-77
2023/11/02 10:41:18;;;;;;;12.98;6.57;;;;;;;10.96;72.66;90472.91;2055183;69;20666;-77
2023/11/02 10:43:48;;;;;;;10.90;7.00;;;;;;;10.68;72.01;90468.75;2054962;69;20144;-78
2023/11/02 10:46:16;;;;;;;11.75;7.25;;;;;;;10.89;72.09;90455.84;2055174;69;20176;-79
2023/11/02 10:48:43;;;;;;;14.25;8.23;;;;;;;10.92;71.44;90437.66;2054862;69;20142;-76
2023/11/02 10:51:18;;;;;;;14.55;8.60;;;;;;;11.12;71.30;90428.94;2055133;69;20169;-77
2023/11/02 10:54:07;;;;;;;23.00;8.27;;;;;;;11.21;72.19;90427.03;2054511;70;20194;-78
2023/11/02 10:56:42;;;;;;;19.05;9.25;;;;;;;11.24;71.04;90417.25;2052275;69;20167;-78
2023/11/02 10:59:10;;;;;;;7.63;5.18;;;;;;;11.59;68.49;90418.69;2054991;69;20154;-78
2023/11/02 11:01:37;;;;;;;9.20;5.97;;;;;;;11.73;68.95;90412.63;2055018;69;20130;-76
2023/11/02 11:04:10;;;;;;;8.02;5.22;;;;;;;11.77;68.88;90395.06;2054524;70;20212;-79
2023/11/02 11:06:40;;;;;;;12.38;5.30;;;;;;;11.66;68.39;90392.03;2055080;69;20170;-79
2023/11/02 11:09:11;;;;;;;10.30;5.30;;;;;;;11.85;68.37;90383.97;2054368;69;20177;-79
2023/11/02 11:11:38;;;;;;;6.85;4.95;;;;;;;11.88;66.95;90379.81;2055040;69;20157;-79
2023/11/02 11:14:03;;;;;;;8.00;5.25;;;;;;;11.41;68.73;90393.66;2055115;69;20137;-77
2023/11/02 11:16:38;;;;;;;9.77;4.20;;;;;;;11.48;68.63;90405.06;2055144;70;20156;-77
2023/11/02 11:19:05;;;;;;;5.78;3.55;;;;;;;11.58;68.20;90414.41;2054746;70;20132;-78
2023/11/02 11:21:34;;;;;;;5.28;3.60;;;;;;;11.38;68.09;90419.66;2055081;69;20146;-82
2023/11/02 11:24:11;;;;;;;7.13;3.55;;;;;;;11.48;68.14;90410.69;2057259;69;20169;-77
2023/11/02 11:26:50;;;;;;;9.10;4.05;;;;;;;11.38;69.04;90397.13;2055228;70;20150;-78
2023/11/02 11:29:38;;;;;;;11.82;3.95;;;;;;;11.28;68.61;90389.16;2054693;70;20196;-80
2023/11/02 11:32:08;;;;;;;6.50;3.88;;;;;;;11.57;67.89;90367.19;2055249;69;20169;-79
2023/11/02 11:34:55;;;;;;;8.98;4.43;;;;;;;12.17;66.53;90392.31;2055219;69;20144;-81
2023/11/02 11:37:58;;;;;;;8.95;5.65;;;;;;;12.63;65.63;90377.56;2055500;69;20197;-78
2023/11/02 11:40:24;;;;;;;4.95;3.50;;;;;;;13.75;64.98;90364.34;2055016;69;20574;-84
2023/11/02 11:43:18;;;;;;;2.65;2.22;;;;;;;13.27;64.00;90377.13;2055175;69;20236;-83
2023/11/02 11:45:45;;;;;;;12.07;5.15;;;;;;;13.07;64.31;90360.59;2054847;69;20186;-82
2023/11/02 11:48:12;;;;;;;3.33;2.40;;;;;;;12.62;62.36;90374.03;2054428;70;20594;-80
2023/11/02 11:50:38;;;;;;;9.25;5.80;;;;;;;12.24;63.54;90379.75;2055151;70;20558;-83
2023/11/02 11:53:26;;;;;;;7.95;5.68;;;;;;;12.39;63.70;90358.84;2055098;69;20146;-83
2023/11/02 11:55:55;;;;;;;8.52;5.38;;;;;;;12.68;64.76;90345.19;2054194;70;20150;-79